Time;durP1;ratioP1;P1;durP2;ratioP2;P2;SDS_P1;SDS_P2;PMS_P1;PMS_P2;Temp;Humidity;BMP_temperature;BMP_pressure;BME280_temperature;BME280_humidity;BME280_pressure;Samples;Min_cycle;Max_cycle;Signal;HPM_P1;HPM_P2
2023/12/03 00:00:52;;;;;;;;;;;;;;;;;;;;;
2023/12/03 00:03:15;;;;;;;28.37;14.43;;;1.10;99.90;-0.10;99754;;;;587524;233;24104;-88
2023/12/03 00:05:44;;;;;;;37.83;19.37;;;1.00;99.90;-0.10;99749;;;;563009;251;24204;-89
2023/12/03 00:08:11;;;;;;;36.67;18.07;;;1.00;99.90;-0.10;99757;;;;562989;251;24111;-89
2023/12/03 00:10:36;;;;;;;25.53;13.13;;;0.90;99.90;-0.10;99744;;;;569244;249;24148;-90
2023/12/03 00:13:08;;;;;;;25.30;13.17;;;0.90;99.90;-0.20;99744;;;;573221;246;24134;-88
2023/12/03 00:15:32;;;;;;;24.70;14.47;;;0.80;99.90;-0.20;99741;;;;572924;246;24106;-89
2023/12/03 00:18:04;;;;;;;24.23;12.80;;;0.90;99.90;-0.20;99750;;;;577632;246;24066;-89
2023/12/03 00:20:33;;;;;;;24.27;13.97;;;0.80;99.90;-0.20;99739;;;;573900;246;24102;-87
2023/12/03 00:23:03;;;;;;;30.57;15.33;;;0.80;99.90;-0.30;99750;;;;563426;251;24113;-89
2023/12/03 00:25:31;;;;;;;30.97;16.40;;;0.80;99.90;-0.30;99747;;;;574077;246;24093;-89
2023/12/03 00:28:00;;;;;;;24.63;13.77;;;0.80;99.90;-0.30;99752;;;;563803;251;24177;-86
2023/12/03 00:30:28;;;;;;;24.43;13.90;;;0.80;99.90;-0.30;99756;;;;562874;251;24157;-88
2023/12/03 00:32:59;;;;;;;22.97;12.43;;;0.80;99.90;-0.30;99746;;;;573759;246;24091;-89
2023/12/03 00:35:23;;;;;;;26.33;13.33;;;0.70;99.90;-0.30;99756;;;;573389;246;24128;-89
2023/12/03 00:37:51;;;;;;;21.97;12.40;;;0.70;99.90;-0.30;99754;;;;577704;246;24079;-88
2023/12/03 00:40:21;;;;;;;18.70;11.87;;;0.80;99.90;-0.30;99761;;;;577456;244;24085;-88
2023/12/03 00:42:53;;;;;;;24.90;13.53;;;0.80;99.90;-0.30;99756;;;;579340;244;24048;-88
2023/12/03 00:45:18;;;;;;;21.23;13.27;;;0.70;99.90;-0.30;99765;;;;562937;251;24199;-88
2023/12/03 00:47:46;;;;;;;36.73;15.80;;;0.80;99.90;-0.30;99764;;;;563409;251;24106;-90
2023/12/03 00:50:14;;;;;;;30.70;14.57;;;0.80;99.90;-0.30;99765;;;;573811;246;24086;-90
2023/12/03 00:52:41;;;;;;;20.20;12.63;;;0.80;99.90;-0.30;99770;;;;583855;245;24162;-89
2023/12/03 00:55:12;;;;;;;15.83;10.03;;;0.80;99.90;-0.30;99769;;;;563132;251;24143;-88
2023/12/03 00:57:37;;;;;;;15.73;9.13;;;0.80;99.90;-0.30;99771;;;;573921;246;24125;-89
2023/12/03 01:00:09;;;;;;;16.00;10.43;;;0.80;99.90;-0.30;99769;;;;586904;243;24067;-90
2023/12/03 01:02:37;;;;;;;15.53;8.93;;;0.80;99.90;-0.30;99761;;;;562640;251;24123;-89
2023/12/03 01:05:07;;;;;;;19.60;10.40;;;0.80;99.90;-0.30;99777;;;;574530;246;24126;-90
2023/12/03 01:07:34;;;;;;;18.97;11.87;;;0.80;99.90;-0.20;99775;;;;582347;246;25159;-90
2023/12/03 01:10:02;;;;;;;19.63;11.37;;;0.80;99.90;-0.20;99775;;;;563169;251;24161;-89
2023/12/03 01:12:28;;;;;;;20.37;11.13;;;0.90;99.90;-0.20;99777;;;;581469;244;24168;-90
2023/12/03 01:14:59;;;;;;;22.40;10.93;;;0.90;99.90;-0.20;99781;;;;577866;246;24099;-88
2023/12/03 01:17:27;;;;;;;17.40;9.37;;;0.90;99.90;-0.20;99781;;;;563091;251;24118;-88
2023/12/03 01:19:54;;;;;;;13.40;8.67;;;0.90;99.90;-0.20;99779;;;;563080;251;24112;-89
2023/12/03 01:22:19;;;;;;;15.63;9.17;;;0.90;99.90;-0.20;99780;;;;563116;251;24195;-88
2023/12/03 01:24:48;;;;;;;13.57;8.80;;;0.90;99.90;-0.20;99781;;;;572468;250;24213;-88
2023/12/03 01:27:23;;;;;;;16.03;10.07;;;1.00;99.90;-0.20;99788;;;;586881;245;24073;-89
2023/12/03 01:29:51;;;;;;;17.40;10.87;;;0.90;99.90;-0.20;99785;;;;564135;250;24103;-89
2023/12/03 01:32:27;;;;;;;18.07;10.13;;;0.80;99.90;-0.20;99783;;;;575133;242;24053;-89
2023/12/03 01:35:00;;;;;;;22.83;11.63;;;0.90;99.90;-0.20;99784;;;;564094;246;24116;-88
2023/12/03 01:37:27;;;;;;;17.17;9.40;;;0.80;99.90;-0.20;99788;;;;563982;247;24080;-87
2023/12/03 01:39:56;;;;;;;19.37;10.37;;;0.90;99.90;-0.20;99798;;;;563462;251;24286;-88
2023/12/03 01:42:24;;;;;;;15.50;9.13;;;0.90;99.90;-0.20;99786;;;;571833;251;24131;-89
2023/12/03 01:44:51;;;;;;;19.27;10.60;;;0.90;99.90;-0.20;99792;;;;579786;246;24111;-89
2023/12/03 01:47:24;;;;;;;14.47;9.60;;;0.90;99.90;-0.20;99792;;;;563168;251;24150;-88
2023/12/03 01:49:52;;;;;;;15.20;9.37;;;0.80;99.90;-0.20;99788;;;;562705;251;25245;-89
2023/12/03 01:52:19;;;;;;;15.13;9.07;;;0.90;99.90;-0.20;99794;;;;563409;251;24129;-89
2023/12/03 01:54:55;;;;;;;11.37;7.43;;;0.90;99.90;-0.20;99793;;;;563140;251;24219;-88
2023/12/03 01:57:25;;;;;;;10.60;7.73;;;0.90;99.90;-0.20;99796;;;;571051;251;24229;-89
2023/12/03 01:59:55;;;;;;;9.93;7.27;;;0.90;99.90;-0.20;99795;;;;563336;251;24134;-90
2023/12/03 02:02:23;;;;;;;14.23;8.53;;;0.90;99.90;-0.20;99796;;;;566233;251;24115;-89
2023/12/03 02:04:49;;;;;;;16.10;9.63;;;0.80;99.90;-0.20;99794;;;;562752;251;24133;-91
2023/12/03 02:07:18;;;;;;;18.87;10.03;;;0.80;99.90;-0.20;99794;;;;571459;247;25178;-90
2023/12/03 02:09:52;;;;;;;18.03;9.83;;;0.80;99.90;-0.30;99794;;;;573730;246;24102;-89
2023/12/03 02:12:32;;;;;;;13.00;8.00;;;0.80;99.90;-0.30;99796;;;;562031;251;24157;-88
2023/12/03 02:15:02;;;;;;;18.70;12.93;;;0.70;99.90;-0.30;99800;;;;571245;249;24148;-89
2023/12/03 02:17:27;;;;;;;10.77;8.00;;;0.80;99.90;-0.30;99801;;;;574652;246;24095;-90
2023/12/03 02:19:59;;;;;;;11.17;7.93;;;0.80;99.90;-0.30;99801;;;;564373;251;24175;-90
2023/12/03 02:22:25;;;;;;;11.60;7.60;;;0.80;99.90;-0.30;99802;;;;564067;250;24208;-88
2023/12/03 02:24:56;;;;;;;12.73;8.27;;;0.70;99.90;-0.30;99807;;;;563968;251;24175;-89
2023/12/03 02:27:27;;;;;;;14.27;9.63;;;0.70;99.90;-0.30;99821;;;;563706;251;24143;-90
2023/12/03 02:29:58;;;;;;;17.77;9.83;;;0.70;99.90;-0.40;99811;;;;566555;251;24153;-88
2023/12/03 02:32:35;;;;;;;14.37;8.93;;;0.70;99.90;-0.40;99820;;;;564374;251;24170;-89
2023/12/03 02:35:00;;;;;;;12.93;7.77;;;0.70;99.90;-0.40;99824;;;;564084;251;24150;-88
2023/12/03 02:37:33;;;;;;;15.53;9.63;;;0.60;99.90;-0.40;99828;;;;563623;251;24085;-88
2023/12/03 02:40:04;;;;;;;12.63;7.80;;;0.80;99.90;-0.40;99823;;;;563620;251;24157;-89
2023/12/03 02:42:33;;;;;;;14.60;8.10;;;0.70;99.90;-0.40;99831;;;;563072;251;24205;-88
2023/12/03 02:45:05;;;;;;;15.43;8.80;;;0.70;99.90;-0.40;99830;;;;563684;251;24142;-89
2023/12/03 02:47:35;;;;;;;12.50;7.87;;;0.70;99.90;-0.40;99830;;;;563520;250;25183;-88
2023/12/03 02:50:13;;;;;;;12.30;7.07;;;0.70;99.90;-0.40;99831;;;;572000;248;24091;-88
2023/12/03 02:52:36;;;;;;;11.53;6.70;;;0.60;99.90;-0.40;99840;;;;576030;246;24099;-89
2023/12/03 02:55:09;;;;;;;9.67;6.17;;;0.70;99.90;-0.40;99836;;;;574056;246;24096;-88
2023/12/03 02:57:34;;;;;;;6.77;5.80;;;0.70;99.90;-0.40;99833;;;;578105;246;24087;-88
2023/12/03 03:00:11;;;;;;;11.90;7.50;;;0.80;99.90;-0.40;99837;;;;562348;251;24142;-88
2023/12/03 03:02:39;;;;;;;12.77;7.40;;;0.70;99.90;-0.40;99839;;;;580923;246;24190;-88
2023/12/03 03:05:08;;;;;;;13.27;7.20;;;0.70;99.90;-0.40;99845;;;;587477;243;24108;-89
2023/12/03 03:07:42;;;;;;;6.77;5.17;;;0.70;99.90;-0.40;99846;;;;562533;251;24179;-89
2023/12/03 03:10:10;;;;;;;8.67;6.63;;;0.70;99.90;-0.30;99848;;;;570643;251;24118;-90
2023/12/03 03:12:51;;;;;;;9.67;6.63;;;0.70;99.90;-0.30;99852;;;;563404;251;24081;-89
2023/12/03 03:15:16;;;;;;;8.87;6.07;;;0.70;99.90;-0.30;99852;;;;571027;251;24137;-90
2023/12/03 03:18:00;;;;;;;12.70;5.73;;;0.80;99.90;-0.30;99856;;;;563001;251;24128;-89
2023/12/03 03:20:31;;;;;;;7.30;4.83;;;0.70;99.90;-0.30;99852;;;;572139;251;24184;-89
2023/12/03 03:23:09;;;;;;;13.47;6.90;;;;;-0.40;99854;;;;563907;250;24132;-89
2023/12/03 03:25:35;;;;;;;7.45;5.90;;;0.80;99.90;-0.40;99851;;;;567776;248;35514;-88
2023/12/03 03:28:09;;;;;;;5.57;2.70;;;0.70;99.90;-0.40;99863;;;;564640;250;24152;-88
2023/12/03 03:30:34;;;;;;;4.73;3.97;;;0.70;99.90;-0.40;99852;;;;564609;251;24163;-88
2023/12/03 03:33:06;;;;;;;7.13;5.50;;;0.70;99.90;-0.40;99863;;;;570859;251;24079;-89
2023/12/03 03:35:30;;;;;;;7.87;5.10;;;0.70;99.90;-0.40;99859;;;;564116;251;24233;-89
2023/12/03 03:37:58;;;;;;;8.83;6.17;;;0.70;99.90;-0.40;99865;;;;566613;251;24111;-88
2023/12/03 03:40:26;;;;;;;5.30;4.70;;;0.70;99.90;-0.40;99860;;;;564139;251;24137;-88
2023/12/03 03:42:59;;;;;;;8.47;5.80;;;0.60;99.90;-0.40;99872;;;;564385;251;24076;-89
2023/12/03 03:45:23;;;;;;;4.53;4.10;;;0.60;99.90;-0.50;99868;;;;574352;246;24088;-88
2023/12/03 03:47:51;;;;;;;6.17;5.20;;;0.60;99.90;-0.50;99863;;;;578753;244;24110;-89
2023/12/03 03:50:25;;;;;;;5.57;4.47;;;0.60;99.90;-0.50;99863;;;;581527;244;24096;-89
2023/12/03 03:52:57;;;;;;;7.77;5.17;;;0.60;99.90;-0.50;99864;;;;576448;246;24130;-89
2023/12/03 03:55:26;;;;;;;5.83;4.53;;;0.50;99.90;-0.50;99863;;;;564089;251;24158;-89
2023/12/03 03:57:51;;;;;;;9.23;5.67;;;0.60;99.90;-0.50;99872;;;;563543;251;24149;-87
2023/12/03 04:00:23;;;;;;;8.40;5.77;;;-0.60;99.90;-0.50;99879;;;;563728;250;24161;-89
2023/12/03 04:02:56;;;;;;;10.33;5.87;;;0.60;99.90;-0.50;99871;;;;563204;251;24180;-88
2023/12/03 04:05:27;;;;;;;12.43;6.80;;;0.60;99.90;-0.50;99868;;;;563121;251;24293;-88
2023/12/03 04:07:55;;;;;;;11.40;5.83;;;0.60;99.90;-0.50;99877;;;;561449;247;24106;-88
2023/12/03 04:10:27;;;;;;;11.97;6.53;;;0.60;99.90;-0.50;99886;;;;563656;251;24101;-88
2023/12/03 04:12:54;;;;;;;9.00;5.60;;;0.60;99.90;-0.50;99884;;;;572028;246;24107;-87
2023/12/03 04:15:20;;;;;;;13.73;6.30;;;0.50;99.90;-0.60;99884;;;;563945;247;24116;-90
2023/12/03 04:17:51;;;;;;;7.10;4.67;;;0.50;99.90;-0.60;99889;;;;563555;251;24114;-90
2023/12/03 04:20:20;;;;;;;8.90;5.13;;;0.40;99.90;-0.60;99885;;;;563673;251;24086;-89
2023/12/03 04:22:46;;;;;;;4.70;3.67;;;0.50;99.90;-0.60;99886;;;;563543;251;24194;-88
2023/12/03 04:25:16;;;;;;;5.03;3.40;;;0.40;99.90;-0.60;99890;;;;571944;251;24189;-88
2023/12/03 04:27:40;;;;;;;6.43;4.40;;;0.40;99.90;-0.70;99895;;;;573821;246;24144;-89
2023/12/03 04:30:15;;;;;;;9.47;5.50;;;0.30;99.90;-0.80;99889;;;;577909;246;24050;-89
2023/12/03 04:32:43;;;;;;;6.07;4.10;;;0.20;99.90;-0.90;99887;;;;579798;244;24074;-89
2023/12/03 04:35:08;;;;;;;8.17;4.90;;;0.20;99.90;-0.90;99884;;;;573826;246;24092;-89
2023/12/03 04:37:38;;;;;;;7.27;4.43;;;0.10;99.90;-1.00;99894;;;;578431;246;24055;-89
2023/12/03 04:40:09;;;;;;;7.37;5.03;;;0.00;99.90;-1.10;99884;;;;573052;249;24116;-88
2023/12/03 04:42:54;;;;;;;;;;;;;;;;;;;;;
2023/12/03 04:45:17;;;;;;;6.10;4.20;;;-0.20;99.90;-1.30;99899;;;;577782;245;24069;-88
2023/12/03 04:47:45;;;;;;;8.70;5.47;;;-0.30;99.90;-1.40;99890;;;;581595;244;24013;-89
2023/12/03 04:50:12;;;;;;;8.33;5.40;;;-0.30;99.90;-1.40;99885;;;;590164;244;24082;-89
2023/12/03 04:52:45;;;;;;;8.70;5.43;;;-0.40;99.90;-1.50;99887;;;;589712;244;24069;-89
2023/12/03 04:55:21;;;;;;;4.23;3.80;;;-0.50;99.90;-1.60;99893;;;;588948;244;24068;-90
2023/12/03 04:57:45;;;;;;;11.20;5.97;;;-0.50;99.90;-1.60;99899;;;;587956;244;24066;-89
2023/12/03 05:00:16;;;;;;;6.57;4.80;;;-0.50;99.90;-1.60;99902;;;;588340;244;24054;-89
2023/12/03 05:02:49;;;;;;;8.43;5.47;;;-0.50;99.90;-1.60;99900;;;;587893;244;25424;-89
2023/12/03 05:05:20;;;;;;;9.20;5.40;;;-0.50;99.90;-1.60;99905;;;;588397;244;24089;-91
2023/12/03 05:07:51;;;;;;;6.80;4.60;;;-0.50;99.90;-1.60;99905;;;;588278;244;24096;-89
2023/12/03 05:10:21;;;;;;;5.30;4.30;;;-0.40;99.90;-1.50;99902;;;;587533;244;24092;-89
2023/12/03 05:12:51;;;;;;;5.83;4.53;;;-0.30;99.90;-1.50;99893;;;;587384;244;24132;-89
2023/12/03 05:15:21;;;;;;;5.07;4.27;;;-0.30;99.90;-1.50;99903;;;;587601;244;24074;-89
2023/12/03 05:17:50;;;;;;;5.93;4.60;;;-0.40;99.90;-1.50;99901;;;;573347;248;24131;-90
2023/12/03 05:20:14;;;;;;;7.40;4.27;;;-0.20;99.90;-1.50;99900;;;;583524;246;24092;-89
2023/12/03 05:22:51;;;;;;;12.40;6.43;;;-0.30;99.90;-1.50;99905;;;;572848;250;24120;-90
2023/12/03 05:25:24;;;;;;;4.40;4.00;;;-0.40;99.90;-1.50;99900;;;;572827;251;24142;-89
2023/12/03 05:27:49;;;;;;;7.03;4.40;;;-0.50;99.90;-1.50;99905;;;;572324;251;24169;-88
2023/12/03 05:30:20;;;;;;;4.40;3.97;;;-0.50;99.90;-1.60;99911;;;;572319;251;24143;-89
2023/12/03 05:32:53;;;;;;;5.13;3.80;;;-0.50;99.90;-1.60;99915;;;;572218;251;24129;-90
2023/12/03 05:35:24;;;;;;;8.93;4.57;;;-0.50;99.90;-1.70;99908;;;;572390;251;24181;-89
2023/12/03 05:38:00;;;;;;;5.93;4.30;;;-0.60;99.90;-1.70;99918;;;;572687;251;24194;-88
2023/12/03 05:40:24;;;;;;;4.83;3.73;;;-0.60;99.90;-1.80;99919;;;;571999;251;24154;-88
2023/12/03 05:42:55;;;;;;;4.73;3.37;;;-0.70;99.90;-1.80;99910;;;;572953;251;24137;-89
2023/12/03 05:45:20;;;;;;;6.33;4.10;;;-0.70;99.90;-1.90;99913;;;;572699;251;24110;-88
2023/12/03 05:47:51;;;;;;;6.40;4.20;;;-0.80;99.90;-2.00;99914;;;;573096;251;24125;-89
2023/12/03 05:50:24;;;;;;;6.27;4.40;;;-1.00;99.90;-2.00;99905;;;;573248;249;24123;-89
2023/12/03 05:52:52;;;;;;;5.00;4.30;;;-1.10;99.90;-2.10;99918;;;;573765;250;24118;-89
2023/12/03 05:55:23;;;;;;;6.97;5.07;;;-1.00;99.90;-2.20;99922;;;;573790;251;24146;-88
2023/12/03 05:57:54;;;;;;;6.73;4.37;;;-1.10;99.90;-2.20;99926;;;;573070;251;24101;-88
2023/12/03 06:00:28;;;;;;;6.03;4.37;;;-1.10;99.90;-2.30;99923;;;;572134;251;24148;-88
2023/12/03 06:02:49;;;;;;;6.87;4.70;;;-1.30;99.90;-2.40;99928;;;;571413;248;24109;-87
2023/12/03 06:05:17;;;;;;;7.13;4.73;;;-1.30;99.90;-2.40;99925;;;;572800;251;24124;-89
2023/12/03 06:07:51;;;;;;;11.77;5.70;;;-1.40;99.90;-2.50;99924;;;;573367;251;25172;-88
2023/12/03 06:10:20;;;;;;;5.83;4.57;;;-1.40;99.90;-2.60;99916;;;;572475;251;24153;-88
2023/12/03 06:12:54;;;;;;;;;;;;;;;;;;;;;
2023/12/03 06:15:16;;;;;;;6.97;4.43;;;-1.50;99.90;-2.70;99934;;;;571430;251;24105;-89
2023/12/03 06:17:46;;;;;;;7.83;4.90;;;-1.60;99.90;-2.70;99937;;;;572529;247;24132;-89
2023/12/03 06:20:14;;;;;;;8.23;4.93;;;-1.50;99.90;-2.70;99941;;;;582656;246;24054;-88
2023/12/03 06:22:42;;;;;;;5.40;4.17;;;-1.60;99.90;-2.80;99936;;;;584800;244;24066;-89
2023/12/03 06:25:11;;;;;;;8.30;4.80;;;-1.60;99.90;-2.80;99950;;;;573040;250;24146;-88
2023/12/03 06:27:47;;;;;;;9.70;4.50;;;-1.60;99.90;-2.80;99949;;;;572439;250;24146;-88
2023/12/03 06:30:26;;;;;;;9.77;5.27;;;-1.70;99.90;-2.80;99952;;;;572392;246;24131;-88
2023/12/03 06:32:56;;;;;;;7.23;3.90;;;-1.70;99.90;-2.80;99945;;;;572522;251;24132;-88
2023/12/03 06:35:28;;;;;;;10.57;5.93;;;-1.70;99.90;-2.90;99951;;;;572694;250;25167;-87
2023/12/03 06:38:00;;;;;;;7.23;4.53;;;-1.80;99.90;-2.90;99950;;;;572174;251;24133;-87
2023/12/03 06:40:25;;;;;;;5.97;3.63;;;-1.80;99.90;-2.90;99952;;;;571767;251;24125;-88
2023/12/03 06:42:58;;;;;;;7.63;3.90;;;-1.80;99.90;-2.90;99948;;;;572110;251;24195;-87
2023/12/03 06:45:26;;;;;;;12.33;6.20;;;-1.80;99.90;-2.90;99955;;;;572983;251;24156;-87
2023/12/03 06:48:01;;;;;;;6.20;3.90;;;-1.90;99.90;-2.90;99952;;;;573396;251;24183;-86
2023/12/03 06:50:34;;;;;;;5.23;3.73;;;-1.80;99.90;-3.00;99962;;;;573582;250;24177;-87
2023/12/03 06:53:04;;;;;;;19.87;7.67;;;-1.80;99.90;-3.00;99965;;;;572996;246;24135;-87
2023/12/03 06:55:32;;;;;;;6.37;4.37;;;-1.80;99.90;-3.00;99968;;;;572772;251;24148;-87
2023/12/03 06:58:01;;;;;;;10.30;5.63;;;-1.80;99.90;-3.00;99967;;;;572811;251;24137;-89
2023/12/03 07:00:34;;;;;;;5.10;4.20;;;-1.80;99.90;-3.00;99962;;;;573683;250;24135;-89
2023/12/03 07:03:04;;;;;;;11.03;6.20;;;-1.80;99.90;-3.00;99962;;;;574080;246;24106;-89
2023/12/03 07:05:31;;;;;;;8.97;5.00;;;-2.00;99.90;-3.00;99968;;;;573159;246;24121;-89
2023/12/03 07:08:00;;;;;;;9.20;5.30;;;-1.80;99.90;-3.00;99973;;;;574556;249;24127;-89
2023/12/03 07:10:28;;;;;;;22.90;9.37;;;-1.80;99.90;-3.00;99979;;;;573792;251;24116;-87
2023/12/03 07:12:57;;;;;;;9.63;5.27;;;-1.80;99.90;-2.90;99981;;;;573837;246;24148;-89
2023/12/03 07:15:26;;;;;;;12.43;6.20;;;-1.70;99.90;-2.90;99983;;;;574203;247;24151;-88
2023/12/03 07:17:57;;;;;;;5.97;4.50;;;-1.90;99.90;-2.90;99989;;;;574325;250;24136;-88
2023/12/03 07:20:25;;;;;;;11.07;5.43;;;-1.90;99.90;-2.90;99985;;;;573680;251;24104;-89
2023/12/03 07:22:52;;;;;;;12.00;4.93;;;-1.70;99.90;-2.90;99985;;;;573460;251;24073;-88
2023/12/03 07:25:30;;;;;;;7.93;4.73;;;-1.70;99.90;-2.90;99987;;;;574035;251;24128;-87
2023/12/03 07:28:01;;;;;;;10.57;5.23;;;-1.80;99.90;-2.80;99988;;;;574007;247;24142;-87
2023/12/03 07:30:30;;;;;;;7.67;4.03;;;-1.60;99.90;-2.80;99997;;;;573346;251;24201;-87
2023/12/03 07:33:00;;;;;;;5.83;4.23;;;-1.60;99.90;-2.80;99982;;;;572825;251;24092;-87
2023/12/03 07:35:29;;;;;;;10.20;4.83;;;-0.10;99.90;-2.70;99990;;;;573794;247;24199;-87
2023/12/03 07:38:03;;;;;;;16.97;7.43;;;-1.60;99.90;-2.70;99988;;;;573897;251;25191;-87
2023/12/03 07:40:31;;;;;;;5.27;4.37;;;-1.60;99.90;-2.80;99989;;;;573966;247;24138;-87
2023/12/03 07:42:59;;;;;;;6.27;4.50;;;-1.50;99.90;-2.80;99998;;;;584338;246;24128;-87
2023/12/03 07:45:24;;;;;;;9.43;5.17;;;-1.60;99.90;-2.80;100005;;;;573168;251;24153;-87
2023/12/03 07:47:52;;;;;;;7.43;4.80;;;-1.60;99.90;-2.80;99992;;;;573254;251;24125;-88
2023/12/03 07:50:20;;;;;;;6.50;4.30;;;-1.70;99.90;-2.90;100003;;;;572502;251;24240;-87
2023/12/03 07:52:53;;;;;;;7.23;4.50;;;-1.70;99.90;-2.90;100008;;;;583887;246;24095;-87
2023/12/03 07:55:30;;;;;;;9.90;5.07;;;-1.70;99.90;-2.90;100015;;;;583947;246;24114;-89
2023/12/03 07:58:11;;;;;;;6.47;4.50;;;-1.70;99.90;-2.90;100011;;;;584846;243;24125;-87
2023/12/03 08:00:35;;;;;;;6.73;4.40;;;-1.70;99.90;-2.90;100006;;;;582791;246;24122;-88
2023/12/03 08:03:01;;;;;;;4.50;3.77;;;-1.70;99.90;-2.90;99999;;;;584725;244;24156;-86
2023/12/03 08:05:32;;;;;;;7.13;4.90;;;-1.70;99.90;-2.90;100000;;;;589753;244;24073;-87
2023/12/03 08:08:01;;;;;;;7.27;4.50;;;-1.60;99.90;-2.80;100007;;;;588704;244;24094;-86
2023/12/03 08:10:32;;;;;;;9.00;4.53;;;-1.60;99.90;-2.80;100012;;;;572942;249;24132;-87
2023/12/03 08:13:06;;;;;;;7.80;4.80;;;-1.60;99.90;-2.70;100019;;;;584181;244;24113;-87
2023/12/03 08:15:35;;;;;;;7.43;5.30;;;-1.50;99.90;-2.70;100018;;;;584890;245;24118;-86
2023/12/03 08:18:00;;;;;;;10.63;6.00;;;-1.40;99.90;-2.70;100011;;;;584223;246;24049;-87
2023/12/03 08:20:36;;;;;;;6.83;4.57;;;-1.40;99.90;-2.60;100021;;;;584156;246;24080;-87
2023/12/03 08:23:05;;;;;;;11.07;6.53;;;-1.40;99.90;-2.60;100021;;;;585344;245;24065;-86
2023/12/03 08:25:40;;;;;;;9.00;5.40;;;-1.40;99.90;-2.60;100018;;;;584639;246;24108;-87
2023/12/03 08:28:07;;;;;;;12.10;6.97;;;-1.50;99.90;-2.60;100012;;;;573293;250;24113;-88
2023/12/03 08:30:48;;;;;;;;;;;;;;;;;;;;;
2023/12/03 08:33:13;;;;;;;16.10;7.57;;;-1.50;99.90;-2.60;100014;;;;569040;251;24117;-87
2023/12/03 08:35:43;;;;;;;9.13;6.60;;;-1.40;99.90;-2.60;100019;;;;584357;246;24085;-88
2023/12/03 08:38:21;;;;;;;7.97;4.93;;;-1.40;99.90;-2.50;100022;;;;574182;251;24142;-88
2023/12/03 08:40:49;;;;;;;9.00;5.13;;;-1.30;99.90;-2.50;100025;;;;583663;246;24106;-88
2023/12/03 08:43:22;;;;;;;11.67;6.07;;;-1.30;99.90;-2.50;100017;;;;583547;246;24087;-88
2023/12/03 08:45:45;;;;;;;6.33;4.07;;;-1.30;99.90;-2.50;100020;;;;584111;246;24070;-89
2023/12/03 08:48:09;;;;;;;6.60;3.50;;;-1.30;99.90;-2.50;100030;;;;589542;244;24119;-88
2023/12/03 08:50:38;;;;;;;6.57;4.20;;;-1.20;99.90;-2.40;100028;;;;583468;242;24143;-86
2023/12/03 08:53:09;;;;;;;5.57;4.33;;;-1.20;99.90;-2.30;100033;;;;572585;251;24165;-88
2023/12/03 08:55:37;;;;;;;9.02;5.35;;;-1.20;99.90;-2.30;100026;;;;578464;244;35330;-88
2023/12/03 08:58:06;;;;;;;7.53;4.83;;;-1.10;99.90;-2.20;100023;;;;572302;251;24139;-88
2023/12/03 09:00:30;;;;;;;6.03;4.53;;;-1.00;99.90;-2.20;100024;;;;583409;243;24099;-87
2023/12/03 09:02:58;;;;;;;5.00;3.73;;;-1.20;99.90;-2.20;100032;;;;584612;243;24117;-88
2023/12/03 09:05:30;;;;;;;8.20;5.00;;;-0.90;99.90;-2.10;100029;;;;583460;246;24110;-87
2023/12/03 09:07:55;;;;;;;7.67;4.73;;;-0.90;99.90;-2.00;100029;;;;584861;245;24060;-88
2023/12/03 09:10:23;;;;;;;5.60;3.90;;;-0.80;99.90;-2.00;100040;;;;589676;244;24127;-86
2023/12/03 09:12:52;;;;;;;4.70;3.60;;;-0.80;99.90;-2.00;100040;;;;582826;242;24183;-88
2023/12/03 09:15:19;;;;;;;7.00;4.83;;;-0.80;99.90;-1.90;100039;;;;584451;240;24109;-87
2023/12/03 09:17:51;;;;;;;6.23;3.63;;;-0.70;99.90;-1.90;100040;;;;583412;242;24115;-87
2023/12/03 09:20:15;;;;;;;5.33;4.17;;;-0.70;99.90;-1.80;100025;;;;584157;245;24084;-87
2023/12/03 09:22:43;;;;;;;7.40;3.93;;;-0.60;99.90;-1.80;100031;;;;583992;246;24110;-87
2023/12/03 09:25:11;;;;;;;8.70;4.47;;;-0.60;99.90;-1.80;100035;;;;584726;242;24125;-88
2023/12/03 09:27:39;;;;;;;8.40;5.00;;;-0.60;99.90;-1.70;100035;;;;587145;242;24112;-87
2023/12/03 09:30:11;;;;;;;8.03;5.37;;;-0.50;99.90;-1.70;100040;;;;585511;246;24093;-88
2023/12/03 09:32:39;;;;;;;7.70;5.47;;;-0.60;99.90;-1.70;100031;;;;572717;250;24115;-87
2023/12/03 09:35:07;;;;;;;8.63;4.90;;;-0.50;99.90;-1.70;100025;;;;573742;250;24123;-87
2023/12/03 09:37:32;;;;;;;9.50;6.00;;;-0.50;99.90;-1.60;100036;;;;584749;246;24072;-87
2023/12/03 09:40:02;;;;;;;9.27;6.30;;;-0.40;99.90;-1.60;100035;;;;584596;242;24104;-87
2023/12/03 09:42:28;;;;;;;8.43;6.00;;;-0.40;99.90;-1.60;100029;;;;585583;239;24065;-88
2023/12/03 09:45:04;;;;;;;9.27;5.17;;;-0.40;99.90;-1.50;100025;;;;573645;246;24127;-88
2023/12/03 09:47:29;;;;;;;8.50;5.50;;;-0.30;99.90;-1.50;100026;;;;573428;251;24170;-87
2023/12/03 09:50:00;;;;;;;8.47;5.83;;;-0.30;99.90;-1.50;100030;;;;573234;246;24108;-87
2023/12/03 09:52:26;;;;;;;7.07;5.47;;;-0.30;99.90;-1.40;100032;;;;583910;246;24076;-87
2023/12/03 09:55:01;;;;;;;5.97;4.70;;;-0.20;99.90;-1.30;100027;;;;573747;251;24140;-86
2023/12/03 09:57:29;;;;;;;9.90;5.63;;;-0.10;99.90;-1.20;100031;;;;584248;246;24102;-87
2023/12/03 09:59:53;;;;;;;8.93;6.53;;;0.20;99.90;-1.00;100042;;;;573197;251;24135;-85
2023/12/03 10:02:26;;;;;;;7.23;5.73;;;0.30;99.90;-0.80;100034;;;;584123;242;24115;-85
2023/12/03 10:04:53;;;;;;;8.17;5.90;;;0.60;99.90;-0.60;100033;;;;585048;245;24104;-87
2023/12/03 10:07:21;;;;;;;7.03;5.80;;;0.70;99.90;-0.40;100033;;;;590336;244;24051;-88
2023/12/03 10:09:45;;;;;;;7.43;5.40;;;0.90;99.90;-0.20;100036;;;;589121;244;24074;-85
2023/12/03 10:12:13;;;;;;;8.13;5.77;;;1.10;99.90;-0.10;100041;;;;588636;244;24084;-88
2023/12/03 10:14:41;;;;;;;11.30;5.37;;;1.10;99.90;0.00;100038;;;;588566;244;24097;-87
2023/12/03 10:17:12;;;;;;;6.60;3.43;;;1.20;99.90;0.10;100032;;;;587890;244;24098;-87
2023/12/03 10:19:36;;;;;;;4.30;2.73;;;1.30;99.90;0.20;100030;;;;587314;244;24098;-87
2023/12/03 10:22:04;;;;;;;3.13;2.83;;;1.30;99.90;0.20;100027;;;;588632;244;24096;-89
2023/12/03 10:24:33;;;;;;;4.17;2.20;;;1.40;99.90;0.10;100043;;;;588771;244;24151;-88
2023/12/03 10:27:04;;;;;;;5.13;2.83;;;1.30;99.90;0.10;100034;;;;586815;244;24093;-87
2023/12/03 10:29:29;;;;;;;4.03;2.43;;;1.30;99.90;0.00;100034;;;;588485;244;24063;-86
2023/12/03 10:31:57;;;;;;;5.83;3.47;;;1.20;99.90;0.00;100034;;;;589183;244;24088;-86
2023/12/03 10:34:24;;;;;;;5.33;2.47;;;1.30;99.90;0.10;100035;;;;588915;244;24069;-87
2023/12/03 10:36:55;;;;;;;6.30;3.63;;;1.40;99.90;0.30;100041;;;;589690;242;24089;-87
2023/12/03 10:39:21;;;;;;;2.47;1.90;;;1.70;99.90;0.60;100044;;;;590428;243;24089;-86
2023/12/03 10:41:52;;;;;;;2.83;1.70;;;1.90;99.90;0.80;100042;;;;590517;243;24085;-86
2023/12/03 10:44:23;;;;;;;3.47;2.37;;;2.10;99.90;1.00;100044;;;;590311;243;24085;-88
2023/12/03 10:46:47;;;;;;;1.83;1.50;;;2.20;99.90;1.10;100040;;;;589731;244;24092;-87
2023/12/03 10:49:19;;;;;;;4.47;2.33;;;2.30;99.90;1.10;100047;;;;574045;251;24121;-88
2023/12/03 10:51:47;;;;;;;3.10;2.07;;;2.30;99.90;1.20;100050;;;;573535;251;24170;-88
2023/12/03 10:54:14;;;;;;;2.37;1.90;;;2.40;99.90;1.30;100054;;;;573018;251;24164;-88
2023/12/03 10:56:43;;;;;;;2.90;2.70;;;0.80;99.90;1.30;100058;;;;573365;250;24146;-86
2023/12/03 10:59:10;;;;;;;3.83;1.93;;;2.50;99.90;1.40;100048;;;;583937;246;24095;-89
2023/12/03 11:01:47;;;;;;;1.67;1.53;;;2.50;99.90;1.40;100051;;;;572317;247;24216;-86
2023/12/03 11:04:35;;;;;;;4.47;1.97;;;2.60;99.90;1.40;100049;;;;572469;251;24113;-86
2023/12/03 11:07:06;;;;;;;3.17;1.57;;;2.60;99.90;1.40;100047;;;;572186;251;24146;-86
2023/12/03 11:09:37;;;;;;;1.93;1.83;;;2.60;99.90;1.50;100044;;;;572145;251;24157;-85
2023/12/03 11:12:06;;;;;;;2.87;2.23;;;2.60;99.90;1.50;100048;;;;572187;250;24174;-86
2023/12/03 11:14:38;;;;;;;2.60;2.00;;;2.60;99.90;1.50;100054;;;;571720;251;24203;-86
2023/12/03 11:17:30;;;;;;;1.67;1.57;;;2.60;99.90;1.50;100055;;;;571556;251;24168;-86
2023/12/03 11:20:05;;;;;;;3.17;2.33;;;2.50;99.90;1.40;100052;;;;559072;256;24225;-85
2023/12/03 11:23:04;;;;;;;3.70;2.43;;;2.50;99.90;1.40;100056;;;;559502;257;24164;-84
2023/12/03 11:25:31;;;;;;;2.80;2.17;;;2.50;99.90;1.50;100053;;;;567338;247;24132;-85
2023/12/03 11:27:59;;;;;;;2.13;1.43;;;2.50;99.90;1.50;100055;;;;571650;251;24121;-85
2023/12/03 11:30:42;;;;;;;4.43;1.63;;;2.60;99.90;1.50;100051;;;;572085;251;24158;-87
2023/12/03 11:33:19;;;;;;;5.20;2.23;;;2.60;99.90;1.50;100053;;;;571970;251;24142;-86